createdAt,value
2018-09-19T03:22:50.962Z,22.6
2018-09-19T03:27:58.740Z,22.6
2018-09-19T03:33:06.738Z,22.6
2018-09-19T03:38:14.536Z,22.6
2018-09-19T03:43:23.123Z,22.6
2018-09-19T03:48:30.264Z,22.6
2018-09-19T03:53:38.259Z,22.6
2018-09-19T03:58:46.069Z,22.8
2018-09-19T04:03:53.966Z,22.7
2018-09-19T04:19:17.611Z,22.9
2018-09-19T04:24:25.485Z,23
2018-09-19T04:34:41.258Z,23
2018-09-19T04:39:49.305Z,23
2018-09-19T04:44:57.089Z,23
2018-09-19T04:50:04.877Z,23.1
2018-09-19T05:00:20.628Z,23
2018-09-19T05:05:28.614Z,23.1
2018-09-19T05:10:36.375Z,23.1
2018-09-19T05:15:44.289Z,23
2018-09-19T05:26:00.019Z,23.1
2018-09-19T05:31:08.293Z,23.2
2018-09-19T05:36:15.789Z,23.3
2018-09-19T05:41:23.643Z,23.3
2018-09-19T05:46:31.524Z,23.5
2018-09-19T05:51:39.382Z,23.5
2018-09-19T05:56:47.208Z,23.7
2018-09-19T06:07:02.792Z,24.1
2018-09-19T06:22:26.105Z,25.2
2018-09-19T06:27:33.867Z,25.6
2018-09-19T06:32:41.866Z,26.3
2018-09-19T06:37:49.246Z,26.9
2018-09-19T06:48:04.538Z,28.5
2018-09-19T06:53:12.019Z,29.3
2018-09-19T06:58:19.567Z,30.1
2018-09-19T07:03:26.968Z,31
2018-09-19T07:08:34.142Z,31.9
2018-09-19T07:13:42.920Z,32.8
2018-09-19T07:18:48.671Z,33.7
2018-09-19T07:23:55.957Z,34.5
2018-09-19T07:34:10.056Z,36
2018-09-19T07:39:17.475Z,36.8
2018-09-19T07:44:24.221Z,37.5
2018-09-19T07:49:30.946Z,38.2
2018-09-19T07:59:45.004Z,39.5
2018-09-19T08:04:51.600Z,40.1
2018-09-19T08:09:58.184Z,40.9
2018-09-19T08:15:05.001Z,41.6
2018-09-19T08:20:11.690Z,42.1
2018-09-19T08:25:18.613Z,42.6
2018-09-19T08:30:24.971Z,43
2018-09-19T08:35:31.613Z,43.2
2018-09-19T08:45:44.825Z,43.8
2018-09-19T08:50:51.528Z,44.2
2018-09-19T08:55:57.936Z,44.8
2018-09-19T09:01:04.398Z,45.3
2018-09-19T09:06:10.952Z,45.8
2018-09-19T09:11:17.289Z,46.2
2018-09-19T09:16:23.840Z,46.5
2018-09-19T09:21:30.150Z,46.9
2018-09-19T09:52:08.267Z,48.4
2018-09-19T09:57:14.848Z,48.5
2018-09-19T10:02:20.847Z,48.7
2018-09-19T10:07:27.140Z,49
2018-09-19T10:17:39.422Z,49.2
2018-09-19T10:22:45.644Z,49.3
2018-09-19T10:27:52.154Z,49.4
2018-09-19T10:32:58.143Z,49.3
2018-09-19T10:48:16.857Z,48.9
2018-09-19T10:53:23.125Z,48.7
2018-09-19T10:58:29.398Z,48.5
2018-09-19T11:08:42.040Z,47.9
2018-09-19T11:13:48.711Z,47
2018-09-19T11:24:01.148Z,45.7
2018-09-19T11:29:07.538Z,45.8
2018-09-19T11:34:14.004Z,45.4
2018-09-19T11:39:20.520Z,44.7
2018-09-19T11:44:27.414Z,44.3
2018-09-19T11:59:48.164Z,43.8
2018-09-19T12:09:59.801Z,44
2018-09-19T12:15:07.206Z,44.1
2018-09-19T12:20:13.056Z,44
2018-09-19T12:25:19.447Z,44.3
2018-09-19T12:30:26.063Z,44.4
2018-09-19T12:35:32.563Z,44.4
2018-09-19T12:40:39.095Z,44.5
2018-09-19T12:45:45.696Z,44.4
2018-09-19T12:55:59.606Z,43.9
2018-09-19T13:06:11.923Z,44
2018-09-19T13:16:25.235Z,43.9
2018-09-19T13:21:31.935Z,43.6
2018-09-19T13:26:38.309Z,43.2
2018-09-19T13:31:44.968Z,42.9
2018-09-19T13:36:51.568Z,42.6
2018-09-19T13:41:58.197Z,42.3
2018-09-19T13:47:04.893Z,42.1
2018-09-19T13:52:11.551Z,41.7
2018-09-19T13:57:18.193Z,41.4
2018-09-19T14:02:24.933Z,41.1
2018-09-19T14:12:38.589Z,40.5
2018-09-19T14:22:51.838Z,39.9
2018-09-19T14:27:58.657Z,39.6
2018-09-19T14:33:05.429Z,39.5
2018-09-19T14:38:12.244Z,39.1
2018-09-19T14:48:25.909Z,38.9
2018-09-19T14:58:39.753Z,38.6
2018-09-19T15:03:46.431Z,38.5
2018-09-19T15:14:00.878Z,38.3
2018-09-19T15:19:07.249Z,38
2018-09-19T15:34:27.909Z,37.6
2018-09-19T15:39:34.940Z,37.6
2018-09-19T15:44:41.782Z,37.4
2018-09-19T15:54:55.678Z,37.1
2018-09-19T16:00:02.732Z,37.1
2018-09-19T16:05:09.562Z,37
2018-09-19T16:10:16.527Z,36.9
2018-09-19T16:15:23.560Z,37.1
2018-09-19T16:20:30.498Z,36.9
2018-09-19T16:30:44.447Z,36.9
2018-09-19T16:35:51.432Z,36.7
2018-09-19T16:40:58.556Z,36.7
2018-09-19T16:46:05.412Z,36.6
2018-09-19T16:51:12.421Z,36.4
2018-09-19T17:01:26.462Z,36.1
2018-09-19T17:06:33.525Z,36
2018-09-19T17:11:40.519Z,35.7
2018-09-19T17:16:47.587Z,35.5
2018-09-19T17:21:54.793Z,35.4
2018-09-19T17:27:01.685Z,35.2
2018-09-19T17:32:09.059Z,34.8
2018-09-19T17:37:15.838Z,34.7
2018-09-19T17:47:30.034Z,34.2
2018-09-19T17:57:44.287Z,33.7
2018-09-19T18:02:51.549Z,33.4
2018-09-19T18:13:05.801Z,33
2018-09-19T18:18:13.132Z,32.6
2018-09-19T18:23:20.212Z,32.4
2018-09-19T18:28:27.445Z,32.2
2018-09-19T18:33:34.682Z,31.8
2018-09-19T18:38:42.000Z,31.5
2018-09-19T18:43:50.166Z,31.3
2018-09-19T18:48:56.502Z,31
2018-09-19T18:59:11.161Z,30.4
2018-09-19T19:04:18.533Z,30.2
2018-09-19T19:09:25.954Z,30
2018-09-19T19:14:33.309Z,29.6
2018-09-19T19:19:40.703Z,29.5
2018-09-19T19:24:48.317Z,29.3
2018-09-19T19:29:55.540Z,29.1
2018-09-19T19:35:02.978Z,28.9
2018-09-19T19:40:10.483Z,28.8
2018-09-19T19:45:18.021Z,28.7
2018-09-19T19:55:32.941Z,28.3
2018-09-19T20:00:40.468Z,28.2
2018-09-19T20:05:48.066Z,28.1
2018-09-19T20:10:55.487Z,27.8
2018-09-19T20:16:03.029Z,27.7
2018-09-19T20:21:10.627Z,27.6
2018-09-19T20:26:18.089Z,27.5
2018-09-19T20:31:25.684Z,27.4
2018-09-19T20:36:33.251Z,27.2
2018-09-19T20:41:40.795Z,27.1
2018-09-19T20:46:48.316Z,26.9
2018-09-19T20:51:55.937Z,26.7
2018-09-19T20:57:03.524Z,26.7
2018-09-19T21:02:11.145Z,26.5
2018-09-19T21:07:18.776Z,26.4
2018-09-19T21:12:26.377Z,26.4
2018-09-19T21:17:34.006Z,26.3
2018-09-19T21:22:41.659Z,26.1
2018-09-19T21:27:49.415Z,26.1
2018-09-19T21:38:04.633Z,25.9
2018-09-19T21:48:19.981Z,25.8
2018-09-19T21:53:27.572Z,25.7
2018-09-19T21:58:35.258Z,25.7
2018-09-19T22:03:42.907Z,25.5
2018-09-19T22:08:50.702Z,25.6
2018-09-19T22:13:58.489Z,25.5
2018-09-19T22:24:14.331Z,25.4
2018-09-19T22:29:21.653Z,25.5
2018-09-19T22:34:29.028Z,25.4
2018-09-19T22:39:36.818Z,25.4
2018-09-19T22:44:44.402Z,25.4
2018-09-19T22:49:52.411Z,25.3
2018-09-19T22:54:59.790Z,25.3
2018-09-19T23:00:07.479Z,25.2
2018-09-19T23:05:15.189Z,25.1
2018-09-19T23:20:38.272Z,25
2018-09-19T23:25:45.938Z,25.1
2018-09-19T23:30:55.088Z,25
2018-09-19T23:36:01.340Z,24.8
2018-09-19T23:41:09.122Z,24.8
2018-09-19T23:46:16.748Z,24.7
2018-09-19T23:51:24.466Z,24.7
2018-09-19T23:56:32.201Z,24.7
